Historyczne dane pomiarowe

Dodano dane terminowe – wersja testowa.

Dane z okresu 1951-2019

Wersja bazy: 1.34 [2019-03-16, lista zmian], aktualizacja planowana na 2019-04-15

Dane meteo z obszaru Polski uzyskane na podstawie danych udostępnionych przez Instytut Meteorologii i Gospodarki Wodnej – Państwowy Instytut Badawczy.

 

Wybierz Datę:    

       

TemperaturaWilgotnośćWiatrCiśnienieOpadyŚniegCzas trwania zjawisk
 Stacja t tx tn tng RH VA  wxwx mslp ppp RRR   cm mm wxwxwxwxwxwxwx
1961-08-14 14.8 20.7 9.2 7.6-- 4.7 1.7---- 0.0------------
1961-08-13 15.3 17.9 11.6 11.1-- 1.0 1.7---- 0.0------------
1961-08-12 16.5 21.9 14.4 12.9-- 3.0 1.7---- 0.0------------
1961-08-11 17.9 20.1 16.6 16.1-- 5.3 1.0---- 7.6------------
1961-08-10 20.0 25.7 17.2 15.9-- 5.3 1.7---- 8.6------------
1961-08-09 19.3 24.7 15.2 14.1-- 4.7 1.3---- 0.0------------
1961-08-08 18.3 22.5 7.9 6.0-- 4.0 1.7---- 0.0------------
1961-08-07 17.3 21.9 14.8 14.3-- 4.7 1.0---- 0.8------------
1961-08-06 22.1 29.8 16.9 15.1-- 4.0 1.7---- 7.2------------
1961-08-05 19.5 24.9 13.9 12.7-- 3.3 1.7---- 0.0------------
1961-08-04 14.4 17.5 8.2 6.0-- 6.7 2.7---- 0.0------------
1961-08-03 13.3 19.1 11.2 10.0-- 1.7 1.3---- 5.4------------
1961-08-02 15.1 21.3 10.2 8.0-- 4.3 2.0---- 4.4------------
1961-08-01 14.4 19.5 11.4 11.1-- 4.0 3.3---- 4.4------------
1961-07-31 13.1 14.3 12.4 13.1-- 8.0 3.3---- 57.0------------
1961-07-30 15.1 18.3 11.6 10.9-- 5.3 2.3---- 0.8------------
1961-07-29 14.5 18.1 11.6 10.5-- 4.7 2.0---- 0.0------------
1961-07-28 14.9 18.5 13.8 13.5-- 7.3 2.0---- 5.2------------
1961-07-27 19.0 23.9 14.8 14.1-- 4.3 3.0---- 6.8------------
1961-07-26 17.9 24.1 13.4 11.7-- 7.3 2.7---- 0.0------------
1961-07-25 13.9 16.7 11.9 11.3-- 7.3 2.0---- 0.0------------
1961-07-24 13.8 16.7 11.8 11.3-- 7.3 1.7---- 0.0------------
1961-07-23 15.0 16.7 12.8 12.1-- 8.0 2.0---- 0.2------------
1961-07-22 15.2 18.7 13.8 13.2-- 6.0 2.7---- 2.8------------
1961-07-21 15.2 17.7 14.0 12.9-- 4.7 2.7---- 2.8------------
1961-07-20 15.9 20.7 10.6 10.0-- 6.7 1.7---- 0.0------------
1961-07-19 16.4 20.3 12.4 11.7-- 5.3 2.3---- 1.6------------
1961-07-18 15.2 19.7 12.6 12.1-- 6.0 2.3---- 0.0------------
1961-07-17 14.8 19.1 10.0 7.6-- 4.3 2.0---- 0.6------------
1961-07-16 15.9 20.7 14.4 13.5-- 6.0 1.7---- 1.6------------
1961-07-15 17.8 23.5 13.4 12.7-- 4.0 2.0---- 2.0------------
1961-07-14 15.1 18.7 12.8 12.3-- 6.7 3.0---- 1.1------------
1961-07-13 20.7 27.4 17.2 16.5-- 4.0 3.0---- 23.2------------
1961-07-12 20.8 26.3 14.6 13.5-- 3.0 2.0---- 0.0------------
1961-07-11 16.8 20.9 9.4 9.0-- 4.0 2.7---- 23.6------------
1961-07-10 13.3 17.7 11.2--- 5.3 3.0---- 1.2------------
1961-07-09 14.0 16.9 12.6--- 7.3 2.0---- 17.6------------
1961-07-08 16.7 22.7 10.2--- 6.7 2.7---- 2.7------------
1961-07-07 13.5 17.5 9.8--- 4.7 2.3---- 0.0------------
1961-07-06 11.3 17.1 7.2--- 5.3 3.3---- 13.7------------
1961-07-05 13.0 16.3 11.6--- 3.0 3.0---- 0.0------------
1961-07-04 15.7 21.3 13.8--- 6.0 3.0---- 2.6------------
1961-07-03 24.4 33.6 15.0--- 3.7 3.0---- 0.0------------
1961-07-02 24.7 31.6 11.6--- 0.0 0.0---- 0.0------------
1961-07-01 22.5 30.2 10.4--- 0.3 1.0---- 0.0------------
1961-06-30 21.0 27.3 10.2--- 0.3 2.3---- 0.0------------
1961-06-29 17.7 21.5 10.6--- 2.7 2.0---- 0.0------------
1961-06-28 17.4 21.1 12.2--- 3.3 5.3---- 0.0------------
1961-06-27 22.3 27.4 17.6--- 4.3 2.3---- 0.0------------
1961-06-26 21.8 29.0 14.3--- 1.3 0.0---- 0.0------------
1961-06-25 21.5 29.4 13.6--- 0.0 1.7---- 0.0------------
1961-06-24 18.8 22.5 12.4--- 3.3 2.3---- 0.0------------
1961-06-23 17.8 22.7 13.2--- 4.0 2.3---- 0.0------------
1961-06-22 17.0 23.1 7.4--- 0.0 1.7---- 0.0------------
1961-06-21 14.8 21.9 9.4--- 4.0 2.0---- 0.0------------
1961-06-20 14.5 20.7 8.8--- 1.0 2.0---- 0.0------------
1961-06-19 17.1 21.9 15.2--- 4.3 2.3---- 0.0------------
1961-06-18 22.1 28.0 12.8--- 5.0 3.7---- 0.0------------
1961-06-17 17.9 24.1 8.2--- 2.0 1.7---- 0.0------------
1961-06-16 15.5 19.4 8.6--- 4.3 2.7---- 0.0------------
333.3 ms

 

Źródłem pochodzenia danych jest Instytut Meteorologii i Gospodarki Wodnej – Państwowy Instytut Badawczy. Dane Instytutu Meteorologii i Gospodarki Wodnej – Państwowego Instytutu Badawczego zostały przetworzone.

Dane źródłowe można odnaleźć na stronie https://dane.imgw.pl